createdAt,value
2023-04-06T00:12:37.514Z,81.73
2023-04-06T00:27:39.705Z,81.37
2023-04-06T00:42:42.364Z,80.88
2023-04-06T00:57:44.579Z,81.89
2023-04-06T01:12:46.419Z,81.81
2023-04-06T01:27:48.133Z,82.49
2023-04-06T01:42:49.808Z,83.06
2023-04-06T01:57:51.686Z,83.54
2023-04-06T02:12:53.489Z,82.91
2023-04-06T02:27:55.639Z,83.21
2023-04-06T02:42:57.413Z,82.72
2023-04-06T02:57:59.239Z,83.06
2023-04-06T03:13:01.075Z,83.31
2023-04-06T03:28:02.928Z,83.73
2023-04-06T03:43:05.429Z,82.95
2023-04-06T03:58:07.199Z,82.92
2023-04-06T04:13:08.937Z,83.01
2023-04-06T04:28:10.686Z,80.93
2023-04-06T04:43:12.489Z,80.21
2023-04-06T04:58:17.773Z,79.51
2023-04-06T05:13:19.717Z,78.21
2023-04-06T05:28:21.580Z,78.47
2023-04-06T05:43:23.435Z,79.92
2023-04-06T05:58:25.260Z,79.80
2023-04-06T06:13:26.969Z,79.45
2023-04-06T06:28:28.666Z,78.94
2023-04-06T06:43:30.660Z,76.64
2023-04-06T06:58:32.456Z,77.14
2023-04-06T07:13:34.087Z,77.18
2023-04-06T07:28:36.031Z,76.57
2023-04-06T07:43:37.746Z,75.19
2023-04-06T07:58:39.493Z,74.62
2023-04-06T08:14:06.085Z,74.07
2023-04-06T08:29:10.604Z,72.58
2023-04-06T08:44:12.773Z,72.58
2023-04-06T08:59:15.382Z,72.14
2023-04-06T09:14:18.171Z,70.84
2023-04-06T09:29:27.850Z,70.05
2023-04-06T09:44:31.532Z,70.58
2023-04-06T09:59:51.466Z,68.52
2023-04-06T10:14:53.509Z,68.26
2023-04-06T10:29:55.233Z,64.47
2023-04-06T10:44:56.893Z,63.77
2023-04-06T10:59:58.794Z,64.46
2023-04-06T11:15:06.786Z,64.90
2023-04-06T11:30:09.177Z,64.32
2023-04-06T11:45:16.782Z,66.59
2023-04-06T12:00:19.104Z,64.03
2023-04-06T12:15:20.962Z,64.60
2023-04-06T12:30:22.710Z,65.36
2023-04-06T12:45:24.492Z,62.25
2023-04-06T13:00:26.646Z,62.82
2023-04-06T13:15:28.392Z,60.63
2023-04-06T13:30:30.473Z,63.86
2023-04-06T13:45:32.257Z,63.64
2023-04-06T14:00:34.533Z,63.14
2023-04-06T14:15:36.422Z,62.06
2023-04-06T14:30:39.246Z,62.34
2023-04-06T14:45:41.091Z,63.36
2023-04-06T15:00:43.064Z,63.49
2023-04-06T15:15:45.529Z,63.16
2023-04-06T15:30:47.269Z,64.89
2023-04-06T15:45:48.981Z,66.29
2023-04-06T16:00:50.570Z,68.47
2023-04-06T16:15:52.624Z,68.91
2023-04-06T16:30:54.335Z,69.80
2023-04-06T16:45:56.123Z,70.33
2023-04-06T17:01:03.069Z,69.56
2023-04-06T17:16:05.026Z,68.51
2023-04-06T17:31:11.531Z,67.82
2023-04-06T17:46:13.435Z,66.23
2023-04-06T18:01:16.338Z,66.91
2023-04-06T18:16:20.419Z,65.79
2023-04-06T18:31:22.650Z,65.74
2023-04-06T18:46:25.380Z,63.06
2023-04-06T19:01:28.987Z,62.23
2023-04-06T19:16:30.905Z,66.37
2023-04-06T19:31:32.702Z,63.03
2023-04-06T19:46:34.504Z,62.21
2023-04-06T20:01:36.541Z,64.93
2023-04-06T20:16:38.654Z,62.90
2023-04-06T20:31:40.533Z,59.82
2023-04-06T20:46:43.419Z,61.44
2023-04-06T21:01:45.261Z,62.90
2023-04-06T21:16:47.003Z,63.24
2023-04-06T21:31:48.782Z,63.49
2023-04-06T21:46:51.954Z,62.68
2023-04-06T22:01:56.289Z,63.14
2023-04-06T22:16:58.745Z,62.75
2023-04-06T22:32:00.605Z,63.02
2023-04-06T22:47:03.836Z,61.58
2023-04-06T23:02:05.804Z,61.17
2023-04-06T23:17:08.380Z,62.77
2023-04-06T23:32:11.033Z,61.87
2023-04-06T23:47:13.327Z,62.53
